createdAt,value
2023-05-04T00:00:19.906Z,6.27
2023-05-04T00:00:50.834Z,6.96
2023-05-04T00:01:21.711Z,8.16
2023-05-04T00:01:52.697Z,8.09
2023-05-04T00:02:23.735Z,7.42
2023-05-04T00:02:54.387Z,7.56
2023-05-04T00:03:25.255Z,6.75
2023-05-04T00:03:55.755Z,7.18
2023-05-04T00:04:26.483Z,7.57
2023-05-04T00:04:57.541Z,6.97
2023-05-04T00:05:28.024Z,7.06
2023-05-04T00:05:58.917Z,6.69
2023-05-04T00:06:29.776Z,7.10
2023-05-04T00:07:00.653Z,6.20
2023-05-04T00:07:31.520Z,6.57
2023-05-04T00:08:02.402Z,6.41
2023-05-04T00:08:33.361Z,7.15
2023-05-04T00:09:04.293Z,7.05
2023-05-04T00:09:35.214Z,7.10
2023-05-04T00:10:06.397Z,6.41
2023-05-04T00:10:36.745Z,7.24
2023-05-04T00:11:07.744Z,7.70
2023-05-04T00:11:38.628Z,7.05
2023-05-04T00:12:09.499Z,7.24
2023-05-04T00:12:40.376Z,6.89
2023-05-04T00:13:11.346Z,6.70
2023-05-04T00:13:41.792Z,7.72
2023-05-04T00:14:12.695Z,6.66
2023-05-04T00:14:43.826Z,6.42
2023-05-04T00:15:14.332Z,6.49
2023-05-04T00:15:45.103Z,6.24
2023-05-04T00:16:15.658Z,6.41
2023-05-04T00:16:46.431Z,7.07
2023-05-04T00:17:16.952Z,7.29
2023-05-04T00:17:48.426Z,6.46
2023-05-04T00:18:18.810Z,5.94
2023-05-04T00:18:49.685Z,7.29
2023-05-04T00:19:20.551Z,6.88
2023-05-04T00:19:51.427Z,6.72
2023-05-04T00:20:22.346Z,6.59
2023-05-04T00:20:53.515Z,7.29
2023-05-04T00:21:24.009Z,6.99
2023-05-04T00:21:55.191Z,6.69
2023-05-04T00:22:25.675Z,7.70
2023-05-04T00:22:56.854Z,6.84
2023-05-04T00:23:27.351Z,6.84
2023-05-04T00:23:58.423Z,7.23
2023-05-04T00:24:28.808Z,6.08
2023-05-04T00:24:59.686Z,7.23
2023-05-04T00:25:30.559Z,6.99
2023-05-04T00:26:01.469Z,6.54
2023-05-04T00:26:32.398Z,7.21
2023-05-04T00:27:03.289Z,6.28
2023-05-04T00:27:34.322Z,7.39
2023-05-04T00:28:04.810Z,7.45
2023-05-04T00:28:35.734Z,6.31
2023-05-04T00:29:06.736Z,6.54
2023-05-04T00:29:37.250Z,7.28
2023-05-04T00:30:07.701Z,6.75
2023-05-04T00:30:38.626Z,6.96
2023-05-04T00:31:09.550Z,7.00
2023-05-04T00:31:40.572Z,6.93
2023-05-04T00:32:10.991Z,7.23
2023-05-04T00:32:41.861Z,6.66
2023-05-04T00:33:12.838Z,7.32
2023-05-04T00:33:43.312Z,7.36
2023-05-04T00:34:14.243Z,6.17
2023-05-04T00:34:45.182Z,6.66
2023-05-04T00:35:16.132Z,6.69
2023-05-04T00:35:47.092Z,7.10
2023-05-04T00:36:18.030Z,6.88
2023-05-04T00:36:48.945Z,6.93
2023-05-04T00:37:19.828Z,6.81
2023-05-04T00:37:50.715Z,7.21
2023-05-04T00:38:21.586Z,6.81
2023-05-04T00:38:52.514Z,7.20
2023-05-04T00:39:23.394Z,6.46
2023-05-04T00:39:54.328Z,6.56
2023-05-04T00:40:25.254Z,7.02
2023-05-04T00:40:56.239Z,7.15
2023-05-04T00:41:27.162Z,6.30
2023-05-04T00:41:58.109Z,6.88
2023-05-04T00:42:29.202Z,6.77
2023-05-04T00:42:59.600Z,6.48
2023-05-04T00:43:30.471Z,6.75
2023-05-04T00:44:01.333Z,7.23
2023-05-04T00:44:32.240Z,6.57
2023-05-04T00:45:03.104Z,6.24
2023-05-04T00:45:34.005Z,6.04
2023-05-04T00:46:05.161Z,6.82
2023-05-04T00:46:35.649Z,6.38
2023-05-04T00:47:06.414Z,6.05
2023-05-04T00:47:36.958Z,6.45
2023-05-04T00:48:08.213Z,5.61
2023-05-04T00:48:38.559Z,7.33
2023-05-04T00:49:09.242Z,6.52
2023-05-04T00:49:39.630Z,7.14
2023-05-04T00:50:10.514Z,7.03
2023-05-04T00:50:41.409Z,6.96
2023-05-04T00:51:12.314Z,6.14
2023-05-04T00:51:43.179Z,6.81
2023-05-04T00:52:14.099Z,7.00
2023-05-04T00:52:45.121Z,7.43
2023-05-04T00:53:15.824Z,6.67
2023-05-04T00:53:46.332Z,6.92
2023-05-04T00:54:17.479Z,6.19
2023-05-04T00:54:48.004Z,7.23
2023-05-04T00:55:18.681Z,6.36
2023-05-04T00:55:49.173Z,7.13
2023-05-04T00:56:20.182Z,6.52
2023-05-04T00:56:50.561Z,7.11
2023-05-04T00:57:21.449Z,7.13
2023-05-04T00:57:52.342Z,7.14
2023-05-04T00:58:23.258Z,6.81
2023-05-04T00:58:54.145Z,6.66
2023-05-04T00:59:25.047Z,6.56
2023-05-04T00:59:56.041Z,6.95
2023-05-04T01:00:27.047Z,6.41
2023-05-04T01:00:57.483Z,6.57
2023-05-04T01:01:28.581Z,5.99
2023-05-04T01:01:59.079Z,6.70
2023-05-04T01:02:30.118Z,6.33
2023-05-04T01:03:00.666Z,6.04
2023-05-04T01:03:31.175Z,6.35
2023-05-04T01:04:02.183Z,6.77
2023-05-04T01:04:33.089Z,6.51
2023-05-04T01:05:04.001Z,6.72
2023-05-04T01:05:34.887Z,6.33
2023-05-04T01:06:05.816Z,6.74
2023-05-04T01:06:36.802Z,5.98
2023-05-04T01:07:07.800Z,7.38
2023-05-04T01:07:38.725Z,6.45
2023-05-04T01:08:09.670Z,6.16
2023-05-04T01:08:40.562Z,5.94
2023-05-04T01:09:11.419Z,6.52
2023-05-04T01:09:42.308Z,6.63
2023-05-04T01:10:13.184Z,7.18
2023-05-04T01:10:44.098Z,6.26
2023-05-04T01:11:14.990Z,6.33
2023-05-04T01:11:46.017Z,6.66
2023-05-04T01:12:16.456Z,5.90
2023-05-04T01:12:47.442Z,6.44
2023-05-04T01:13:18.130Z,6.46
2023-05-04T01:13:48.586Z,6.28
2023-05-04T01:14:19.591Z,7.28
2023-05-04T01:14:50.572Z,6.75
2023-05-04T01:15:21.446Z,5.97
2023-05-04T01:15:52.315Z,6.62
2023-05-04T01:16:23.321Z,6.84
2023-05-04T01:16:53.788Z,7.13
2023-05-04T01:17:24.713Z,6.70
2023-05-04T01:17:55.670Z,5.73
2023-05-04T01:18:26.808Z,6.41
2023-05-04T01:18:57.312Z,6.19
2023-05-04T01:19:28.447Z,5.87
2023-05-04T01:19:58.941Z,6.41
2023-05-04T01:20:30.104Z,6.89
2023-05-04T01:21:00.591Z,5.99
2023-05-04T01:21:31.304Z,6.48
2023-05-04T01:22:01.695Z,6.75
2023-05-04T01:22:32.560Z,6.59
2023-05-04T01:23:03.426Z,6.56
2023-05-04T01:23:34.298Z,6.36
2023-05-04T01:24:05.172Z,6.64
2023-05-04T01:24:36.049Z,6.41
2023-05-04T01:25:07.121Z,6.57
2023-05-04T01:25:37.615Z,6.60
2023-05-04T01:26:08.100Z,6.11
2023-05-04T01:26:39.298Z,6.19
2023-05-04T01:27:10.031Z,6.72
2023-05-04T01:27:40.725Z,5.48
2023-05-04T01:28:11.279Z,6.78
2023-05-04T01:28:41.687Z,7.33
2023-05-04T01:29:12.554Z,6.78
2023-05-04T01:29:43.418Z,6.99
2023-05-04T01:30:14.290Z,7.10
2023-05-04T01:30:45.271Z,7.03
2023-05-04T01:31:16.205Z,6.70
2023-05-04T01:31:47.433Z,5.94
2023-05-04T01:32:17.944Z,6.72
2023-05-04T01:32:49.136Z,6.48
2023-05-04T01:33:19.653Z,6.92
2023-05-04T01:33:50.784Z,6.12
2023-05-04T01:34:21.287Z,6.45
2023-05-04T01:34:52.178Z,7.10
2023-05-04T01:35:23.066Z,6.42
2023-05-04T01:35:53.940Z,6.02
2023-05-04T01:36:24.828Z,6.30
2023-05-04T01:36:55.729Z,7.24
2023-05-04T01:37:26.601Z,6.57
2023-05-04T01:37:57.526Z,6.57
2023-05-04T01:38:28.457Z,6.42
2023-05-04T01:38:59.385Z,6.24
2023-05-04T01:39:30.311Z,6.08
2023-05-04T01:40:01.337Z,5.94
2023-05-04T01:40:31.850Z,6.42
2023-05-04T01:41:02.733Z,5.83
2023-05-04T01:41:33.616Z,6.60
2023-05-04T01:42:04.476Z,6.69
2023-05-04T01:42:35.349Z,7.36
2023-05-04T01:43:06.212Z,7.25
2023-05-04T01:43:37.092Z,6.54
2023-05-04T01:44:08.054Z,6.69
2023-05-04T01:44:38.980Z,7.00
2023-05-04T01:45:09.922Z,6.62
2023-05-04T01:45:40.851Z,6.09
2023-05-04T01:46:11.872Z,6.49
2023-05-04T01:46:42.450Z,6.16
2023-05-04T01:47:12.890Z,7.28
2023-05-04T01:47:43.822Z,6.85
2023-05-04T01:48:14.704Z,5.93
2023-05-04T01:48:45.605Z,6.56
2023-05-04T01:49:16.520Z,6.87
2023-05-04T01:49:47.429Z,6.56
2023-05-04T01:50:18.438Z,6.78
2023-05-04T01:50:49.559Z,6.12
2023-05-04T01:51:20.109Z,5.76
2023-05-04T01:51:50.716Z,5.94
2023-05-04T01:52:21.202Z,6.17
2023-05-04T01:52:52.345Z,5.43
2023-05-04T01:53:22.795Z,6.36
2023-05-04T01:53:53.746Z,6.96
2023-05-04T01:54:24.631Z,6.39
2023-05-04T01:54:55.528Z,6.31
2023-05-04T01:55:26.455Z,6.39
2023-05-04T01:55:57.326Z,5.73
2023-05-04T01:56:28.252Z,5.89
2023-05-04T01:57:01.183Z,6.60
2023-05-04T01:57:30.167Z,5.43
2023-05-04T01:58:01.345Z,6.35
2023-05-04T01:58:31.723Z,5.86
2023-05-04T01:59:02.582Z,6.60
2023-05-04T01:59:33.500Z,6.81
2023-05-04T02:00:04.581Z,6.24
2023-05-04T02:00:35.143Z,6.27
2023-05-04T02:01:06.115Z,6.54
2023-05-04T02:01:37.035Z,5.39
2023-05-04T02:02:07.972Z,6.59
2023-05-04T02:02:39.070Z,5.94
2023-05-04T02:03:09.819Z,6.38
2023-05-04T02:03:40.518Z,6.09
2023-05-04T02:04:11.143Z,6.07
2023-05-04T02:04:41.842Z,6.78
2023-05-04T02:05:12.770Z,6.24
2023-05-04T02:05:43.667Z,6.63
2023-05-04T02:06:14.544Z,6.05
2023-05-04T02:06:45.407Z,5.93
2023-05-04T02:07:16.305Z,6.52
2023-05-04T02:07:47.185Z,5.87
2023-05-04T02:08:18.128Z,6.49
2023-05-04T02:08:49.059Z,6.31
2023-05-04T02:09:20.015Z,5.50
2023-05-04T02:09:51.003Z,5.87
2023-05-04T02:10:22.014Z,6.31
2023-05-04T02:10:52.512Z,6.54
2023-05-04T02:11:23.466Z,5.25
2023-05-04T02:11:53.983Z,5.41
2023-05-04T02:12:24.862Z,6.11
2023-05-04T02:12:55.814Z,6.31
2023-05-04T02:13:26.711Z,6.70
2023-05-04T02:13:57.600Z,5.08
2023-05-04T02:14:28.509Z,5.99
2023-05-04T02:14:59.962Z,5.15
2023-05-04T02:15:30.454Z,6.26
2023-05-04T02:16:01.150Z,6.41
2023-05-04T02:16:31.572Z,7.17
2023-05-04T02:17:02.534Z,5.93
2023-05-04T02:17:33.045Z,6.69
2023-05-04T02:18:03.772Z,5.83
2023-05-04T02:18:34.150Z,5.50
2023-05-04T02:19:05.021Z,5.99
2023-05-04T02:19:35.946Z,6.09
2023-05-04T02:20:07.168Z,5.89
2023-05-04T02:20:37.462Z,6.12
2023-05-04T02:21:08.325Z,6.44
2023-05-04T02:21:39.351Z,6.85
2023-05-04T02:22:09.785Z,6.39
2023-05-04T02:22:40.717Z,6.28
2023-05-04T02:23:11.643Z,6.39
2023-05-04T02:23:42.557Z,5.72
2023-05-04T02:24:13.544Z,6.07
2023-05-04T02:24:44.434Z,7.02
2023-05-04T02:25:15.313Z,6.88
2023-05-04T02:25:46.185Z,5.87
2023-05-04T02:26:17.055Z,5.99
2023-05-04T02:26:47.935Z,6.16
2023-05-04T02:27:18.804Z,5.84
2023-05-04T02:27:49.753Z,5.97
2023-05-04T02:28:20.749Z,5.86
2023-05-04T02:28:51.242Z,5.75
2023-05-04T02:29:22.188Z,6.41
2023-05-04T02:29:53.177Z,5.57
2023-05-04T02:30:24.131Z,6.84
2023-05-04T02:30:55.032Z,5.90
2023-05-04T02:31:25.910Z,5.76
2023-05-04T02:31:56.842Z,5.71
2023-05-04T02:32:27.780Z,5.39
2023-05-04T02:32:58.722Z,6.99
2023-05-04T02:33:29.645Z,5.56
2023-05-04T02:34:00.798Z,6.57
2023-05-04T02:34:31.344Z,6.44
2023-05-04T02:35:01.967Z,6.27
2023-05-04T02:35:32.492Z,6.09
2023-05-04T02:36:03.173Z,6.33
2023-05-04T02:36:33.592Z,6.20
2023-05-04T02:37:06.571Z,5.72
2023-05-04T02:37:35.184Z,5.80
2023-05-04T02:38:06.063Z,6.07
2023-05-04T02:38:36.968Z,4.92
2023-05-04T02:39:07.861Z,6.38
2023-05-04T02:39:38.739Z,6.09
2023-05-04T02:40:09.594Z,5.11
2023-05-04T02:40:40.608Z,5.53
2023-05-04T02:41:11.562Z,6.09
2023-05-04T02:41:42.570Z,6.04
2023-05-04T02:42:13.487Z,6.30
2023-05-04T02:42:44.423Z,6.26
2023-05-04T02:43:15.310Z,5.68
2023-05-04T02:43:46.173Z,5.94
2023-05-04T02:44:17.061Z,5.59
2023-05-04T02:44:47.957Z,5.64
2023-05-04T02:45:18.844Z,6.01
2023-05-04T02:45:49.816Z,5.90
2023-05-04T02:46:20.413Z,5.72
2023-05-04T02:46:51.134Z,5.86
2023-05-04T02:47:22.130Z,6.35
2023-05-04T02:47:52.783Z,5.36
2023-05-04T02:48:23.298Z,5.53
2023-05-04T02:48:54.250Z,5.97
2023-05-04T02:49:25.182Z,5.39
2023-05-04T02:49:56.063Z,6.30
2023-05-04T02:50:26.936Z,6.08
2023-05-04T02:50:57.819Z,5.56
2023-05-04T02:51:28.691Z,5.99
2023-05-04T02:51:59.579Z,6.14
2023-05-04T02:52:30.455Z,5.87
2023-05-04T02:53:01.660Z,6.20
2023-05-04T02:53:32.143Z,6.02
2023-05-04T02:54:02.853Z,5.73
2023-05-04T02:54:33.341Z,5.75
2023-05-04T02:55:04.483Z,5.26
2023-05-04T02:55:34.996Z,6.22
2023-05-04T02:56:06.118Z,6.70
2023-05-04T02:56:36.507Z,5.87
2023-05-04T02:57:07.390Z,5.80
2023-05-04T02:57:38.271Z,5.99
2023-05-04T02:58:09.149Z,6.26
2023-05-04T02:58:40.066Z,5.39
2023-05-04T02:59:10.930Z,5.89
2023-05-04T02:59:41.876Z,4.80
2023-05-04T03:00:12.812Z,4.94
2023-05-04T03:00:43.811Z,5.61
2023-05-04T03:01:14.348Z,5.73
2023-05-04T03:01:44.814Z,5.56
2023-05-04T03:02:15.341Z,5.36
2023-05-04T03:02:46.318Z,5.99
2023-05-04T03:03:16.729Z,5.50
2023-05-04T03:03:47.768Z,5.86
2023-05-04T03:04:18.213Z,5.12
2023-05-04T03:04:49.107Z,5.00
2023-05-04T03:05:19.979Z,6.82
2023-05-04T03:05:50.849Z,6.60
2023-05-04T03:06:21.909Z,5.79
2023-05-04T03:06:52.404Z,6.05
2023-05-04T03:07:22.864Z,5.73
2023-05-04T03:07:53.870Z,6.36
2023-05-04T03:08:24.810Z,6.20
2023-05-04T03:08:55.735Z,5.20
2023-05-04T03:09:26.680Z,5.86
2023-05-04T03:09:57.556Z,5.62
2023-05-04T03:10:28.435Z,5.91
2023-05-04T03:10:59.388Z,6.31
2023-05-04T03:11:30.269Z,6.02
2023-05-04T03:12:01.177Z,5.86
2023-05-04T03:12:32.170Z,5.89
2023-05-04T03:13:03.138Z,6.16
2023-05-04T03:13:34.109Z,6.41
2023-05-04T03:14:05.098Z,6.49
2023-05-04T03:14:35.588Z,5.53
2023-05-04T03:15:06.521Z,5.57
2023-05-04T03:15:37.387Z,6.11
2023-05-04T03:16:08.285Z,5.93
2023-05-04T03:16:39.319Z,5.89
2023-05-04T03:17:09.739Z,5.54
2023-05-04T03:17:40.642Z,6.41
2023-05-04T03:18:11.592Z,6.11
2023-05-04T03:18:58.001Z,5.82
2023-05-04T03:19:14.746Z,5.68
2023-05-04T03:19:44.283Z,6.41
2023-05-04T03:20:14.975Z,5.82
2023-05-04T03:20:45.485Z,6.45
2023-05-04T03:21:16.190Z,5.72
2023-05-04T03:21:46.708Z,6.04
2023-05-04T03:22:17.355Z,6.01
2023-05-04T03:22:47.755Z,6.44
2023-05-04T03:23:18.674Z,5.65
2023-05-04T03:23:49.591Z,5.38
2023-05-04T03:24:20.467Z,6.17
2023-05-04T03:24:51.316Z,5.12
2023-05-04T03:25:22.214Z,5.14
2023-05-04T03:25:53.137Z,5.35
2023-05-04T03:26:24.062Z,5.36
2023-05-04T03:26:55.013Z,5.35
2023-05-04T03:27:25.941Z,5.59
2023-05-04T03:27:56.921Z,5.89
2023-05-04T03:28:27.806Z,6.17
2023-05-04T03:28:58.689Z,5.61
2023-05-04T03:29:29.553Z,5.48
2023-05-04T03:30:00.482Z,4.80
2023-05-04T03:30:31.361Z,5.72
2023-05-04T03:31:02.223Z,5.48
2023-05-04T03:31:33.270Z,5.87
2023-05-04T03:32:03.842Z,5.62
2023-05-04T03:32:34.448Z,6.04
2023-05-04T03:33:05.282Z,6.20
2023-05-04T03:33:35.813Z,5.39
2023-05-04T03:34:06.779Z,6.01
2023-05-04T03:34:37.665Z,5.84
2023-05-04T03:35:08.481Z,4.96
2023-05-04T03:35:39.313Z,6.24
2023-05-04T03:36:10.196Z,6.30
2023-05-04T03:36:41.053Z,5.80
2023-05-04T03:37:11.863Z,5.90
2023-05-04T03:37:42.709Z,6.04
2023-05-04T03:38:13.866Z,5.66
2023-05-04T03:38:44.342Z,5.18
2023-05-04T03:39:15.421Z,5.84
2023-05-04T03:39:45.873Z,5.26
2023-05-04T03:40:16.985Z,5.51
2023-05-04T03:40:47.358Z,5.36
2023-05-04T03:41:18.435Z,5.44
2023-05-04T03:41:48.765Z,6.19
2023-05-04T03:42:19.571Z,6.60
2023-05-04T03:42:50.461Z,6.26
2023-05-04T03:43:21.292Z,5.53
2023-05-04T03:43:52.115Z,5.59
2023-05-04T03:44:22.933Z,6.14
2023-05-04T03:44:53.812Z,5.32
2023-05-04T03:45:24.724Z,5.99
2023-05-04T03:45:55.603Z,5.59
2023-05-04T03:46:26.549Z,5.66
2023-05-04T03:46:57.466Z,5.66
2023-05-04T03:47:28.440Z,5.71
2023-05-04T03:47:59.319Z,6.09
2023-05-04T03:48:30.198Z,5.21
2023-05-04T03:49:01.026Z,5.44
2023-05-04T03:49:31.876Z,6.04
2023-05-04T03:50:02.932Z,5.44
2023-05-04T03:50:33.283Z,5.04
2023-05-04T03:51:04.234Z,5.46
2023-05-04T03:51:35.191Z,5.93
2023-05-04T03:52:06.059Z,5.04
2023-05-04T03:52:36.986Z,5.04
2023-05-04T03:53:07.864Z,6.46
2023-05-04T03:53:38.806Z,5.83
2023-05-04T03:54:09.639Z,5.17
2023-05-04T03:54:40.482Z,5.57
2023-05-04T03:55:11.300Z,5.56
2023-05-04T03:55:42.119Z,5.72
2023-05-04T03:56:12.942Z,5.26
2023-05-04T03:56:43.742Z,5.08
2023-05-04T03:57:14.884Z,6.17
2023-05-04T03:57:45.305Z,5.61
2023-05-04T03:58:16.385Z,6.14
2023-05-04T03:58:46.861Z,6.42
2023-05-04T03:59:18.020Z,5.33
2023-05-04T03:59:48.470Z,6.11
2023-05-04T04:00:19.607Z,5.36
2023-05-04T04:00:49.938Z,5.65
2023-05-04T04:01:20.753Z,5.44
2023-05-04T04:01:51.587Z,5.72
2023-05-04T04:02:22.470Z,6.33
2023-05-04T04:02:53.680Z,5.04
2023-05-04T04:03:23.996Z,5.17
2023-05-04T04:03:54.556Z,5.73
2023-05-04T04:04:25.277Z,5.47
2023-05-04T04:04:55.718Z,5.50
2023-05-04T04:05:26.657Z,6.16
2023-05-04T04:05:57.609Z,5.47
2023-05-04T04:06:28.533Z,6.82
2023-05-04T04:06:59.413Z,5.10
2023-05-04T04:07:30.228Z,6.04
2023-05-04T04:08:01.080Z,5.69
2023-05-04T04:08:31.908Z,6.24
2023-05-04T04:09:02.747Z,5.51
2023-05-04T04:09:33.605Z,6.59
2023-05-04T04:10:04.565Z,5.84
2023-05-04T04:10:35.464Z,6.84
2023-05-04T04:11:06.610Z,5.87
2023-05-04T04:11:36.992Z,6.67
2023-05-04T04:12:08.082Z,6.93
2023-05-04T04:12:38.586Z,5.97
2023-05-04T04:13:09.768Z,5.91
2023-05-04T04:13:40.228Z,6.35
2023-05-04T04:14:11.039Z,6.72
2023-05-04T04:14:41.882Z,5.38
2023-05-04T04:15:12.716Z,4.97
2023-05-04T04:15:43.553Z,6.01
2023-05-04T04:16:14.444Z,5.59
2023-05-04T04:16:45.595Z,5.76
2023-05-04T04:17:16.323Z,5.84
2023-05-04T04:17:46.831Z,5.59
2023-05-04T04:18:17.481Z,5.57
2023-05-04T04:18:47.926Z,5.44
2023-05-04T04:19:19.073Z,5.53
2023-05-04T04:19:49.544Z,6.64
2023-05-04T04:20:20.627Z,6.09
2023-05-04T04:20:50.957Z,5.79
2023-05-04T04:21:21.786Z,5.94
2023-05-04T04:21:52.618Z,5.75
2023-05-04T04:22:23.452Z,5.54
2023-05-04T04:22:54.268Z,5.26
2023-05-04T04:23:25.076Z,6.30
2023-05-04T04:23:55.982Z,6.04
2023-05-04T04:24:26.956Z,6.62
2023-05-04T04:24:57.934Z,5.36
2023-05-04T04:25:28.889Z,6.82
2023-05-04T04:25:59.818Z,6.30
2023-05-04T04:26:30.686Z,5.91
2023-05-04T04:27:01.495Z,6.07
2023-05-04T04:27:32.320Z,6.14
2023-05-04T04:28:03.146Z,5.99
2023-05-04T04:28:33.982Z,7.17
2023-05-04T04:29:04.782Z,7.23
2023-05-04T04:29:35.608Z,6.44
2023-05-04T04:30:06.764Z,7.10
2023-05-04T04:30:37.331Z,6.69
2023-05-04T04:31:08.286Z,6.44
2023-05-04T04:31:39.272Z,6.44
2023-05-04T04:32:09.682Z,6.56
2023-05-04T04:32:40.699Z,6.69
2023-05-04T04:33:11.155Z,6.77
2023-05-04T04:33:42.126Z,6.82
2023-05-04T04:34:12.938Z,6.63
2023-05-04T04:34:43.777Z,7.29
2023-05-04T04:35:14.651Z,7.14
2023-05-04T04:35:45.502Z,7.18
2023-05-04T04:36:16.558Z,6.62
2023-05-04T04:36:47.531Z,7.29
2023-05-04T04:37:18.405Z,6.66
2023-05-04T04:37:49.345Z,7.20
2023-05-04T04:38:20.300Z,6.42
2023-05-04T04:38:51.177Z,7.17
2023-05-04T04:39:22.044Z,6.78
2023-05-04T04:39:52.881Z,8.61
2023-05-04T04:40:23.719Z,7.28
2023-05-04T04:40:54.555Z,7.36
2023-05-04T04:41:25.440Z,7.00
2023-05-04T04:41:56.260Z,7.42
2023-05-04T04:42:27.332Z,7.72
2023-05-04T04:42:57.793Z,7.47
2023-05-04T04:43:28.874Z,7.72
2023-05-04T04:43:59.310Z,6.69
2023-05-04T04:44:30.388Z,7.03
2023-05-04T04:45:00.837Z,7.72
2023-05-04T04:45:33.726Z,7.28
2023-05-04T04:46:02.321Z,7.10
2023-05-04T04:46:33.234Z,7.73
2023-05-04T04:47:04.208Z,6.99
2023-05-04T04:47:35.186Z,7.33
2023-05-04T04:48:06.069Z,6.89
2023-05-04T04:48:36.894Z,7.54
2023-05-04T04:49:08.003Z,7.00
2023-05-04T04:49:39.078Z,7.11
2023-05-04T04:50:09.579Z,6.63
2023-05-04T04:50:40.344Z,6.97
2023-05-04T04:51:10.961Z,7.54
2023-05-04T04:51:41.640Z,7.07
2023-05-04T04:52:12.393Z,7.50
2023-05-04T04:52:42.886Z,7.10
2023-05-04T04:53:13.732Z,7.45
2023-05-04T04:53:44.567Z,7.53
2023-05-04T04:54:15.670Z,7.05
2023-05-04T04:54:46.022Z,7.39
2023-05-04T04:55:16.870Z,8.03
2023-05-04T04:55:47.768Z,7.33
2023-05-04T04:56:18.704Z,7.83
2023-05-04T04:56:49.645Z,8.52
2023-05-04T04:57:20.511Z,7.90
2023-05-04T04:57:51.461Z,8.33
2023-05-04T04:58:22.278Z,7.63
2023-05-04T04:58:53.094Z,8.19
2023-05-04T04:59:23.936Z,7.43
2023-05-04T04:59:54.749Z,8.20
2023-05-04T05:00:25.607Z,7.67
2023-05-04T05:00:56.486Z,7.21
2023-05-04T05:01:27.661Z,7.20
2023-05-04T05:01:58.152Z,7.15
2023-05-04T05:02:29.063Z,8.06
2023-05-04T05:03:00.076Z,8.06
2023-05-04T05:03:30.807Z,8.12
2023-05-04T05:04:01.687Z,8.06
2023-05-04T05:04:33.432Z,7.98
2023-05-04T05:05:03.340Z,8.23
2023-05-04T05:05:34.204Z,7.39
2023-05-04T05:06:05.022Z,8.60
2023-05-04T05:06:35.874Z,8.64
2023-05-04T05:07:06.688Z,7.91
2023-05-04T05:07:37.504Z,8.34
2023-05-04T05:08:08.422Z,8.95
2023-05-04T05:08:39.576Z,8.33
2023-05-04T05:09:09.981Z,8.51
2023-05-04T05:09:41.057Z,7.69
2023-05-04T05:10:11.537Z,7.05
2023-05-04T05:10:44.089Z,7.57
2023-05-04T05:11:13.083Z,8.34
2023-05-04T05:11:43.912Z,7.54
2023-05-04T05:12:14.755Z,8.18
2023-05-04T05:12:45.644Z,7.50
2023-05-04T05:13:16.662Z,8.01
2023-05-04T05:13:47.087Z,8.15
2023-05-04T05:14:17.969Z,8.23
2023-05-04T05:14:48.887Z,7.02
2023-05-04T05:15:19.872Z,8.01
2023-05-04T05:15:50.836Z,7.76
2023-05-04T05:16:21.810Z,7.88
2023-05-04T05:16:52.753Z,7.73
2023-05-04T05:17:23.384Z,8.41
2023-05-04T05:17:54.362Z,8.31
2023-05-04T05:18:25.228Z,7.58
2023-05-04T05:18:56.037Z,7.66
2023-05-04T05:19:26.903Z,8.81
2023-05-04T05:19:57.890Z,8.87
2023-05-04T05:20:28.354Z,8.42
2023-05-04T05:20:59.344Z,8.69
2023-05-04T05:21:30.293Z,8.61
2023-05-04T05:22:01.226Z,8.74
2023-05-04T05:22:32.164Z,8.97
2023-05-04T05:23:03.472Z,9.18
2023-05-04T05:23:33.802Z,8.94
2023-05-04T05:24:04.623Z,9.55
2023-05-04T05:24:35.494Z,8.94
2023-05-04T05:25:06.356Z,8.63
2023-05-04T05:25:37.214Z,9.36
2023-05-04T05:26:08.049Z,8.44
2023-05-04T05:26:38.985Z,9.83
2023-05-04T05:27:09.936Z,9.08
2023-05-04T05:27:40.849Z,9.08
2023-05-04T05:28:11.719Z,9.68
2023-05-04T05:28:42.625Z,9.54
2023-05-04T05:29:13.542Z,9.14
2023-05-04T05:29:44.374Z,8.34
2023-05-04T05:30:15.205Z,9.37
2023-05-04T05:30:46.066Z,9.22
2023-05-04T05:31:16.943Z,9.37
2023-05-04T05:31:47.821Z,9.08
2023-05-04T05:32:18.664Z,9.82
2023-05-04T05:32:49.767Z,9.44
2023-05-04T05:33:20.461Z,9.59
2023-05-04T05:33:51.131Z,9.76
2023-05-04T05:34:21.618Z,9.21
2023-05-04T05:34:52.780Z,9.95
2023-05-04T05:35:23.940Z,9.08
2023-05-04T05:35:54.186Z,9.18
2023-05-04T05:36:24.564Z,9.31
2023-05-04T05:36:55.404Z,9.66
2023-05-04T05:37:26.238Z,10.42
2023-05-04T05:37:57.097Z,9.74
2023-05-04T05:38:27.956Z,10.63
2023-05-04T05:38:58.771Z,10.74
2023-05-04T05:39:29.773Z,9.31
2023-05-04T05:40:00.276Z,10.64
2023-05-04T05:40:31.165Z,10.51
2023-05-04T05:41:02.057Z,10.25
2023-05-04T05:41:32.992Z,10.68
2023-05-04T05:42:03.860Z,10.94
2023-05-04T05:42:34.719Z,9.94
2023-05-04T05:43:05.608Z,10.23
2023-05-04T05:43:36.422Z,10.67
2023-05-04T05:44:07.434Z,10.22
2023-05-04T05:44:37.757Z,10.20
2023-05-04T05:45:08.596Z,10.17
2023-05-04T05:45:39.508Z,10.61
2023-05-04T05:46:10.471Z,11.37
2023-05-04T05:46:41.000Z,10.75
2023-05-04T05:47:11.499Z,10.79
2023-05-04T05:47:42.423Z,10.01
2023-05-04T05:48:13.324Z,10.09
2023-05-04T05:48:44.292Z,10.44
2023-05-04T05:49:15.137Z,10.74
2023-05-04T05:49:46.552Z,10.54
2023-05-04T05:50:16.681Z,9.94
2023-05-04T05:50:47.591Z,10.33
2023-05-04T05:51:18.414Z,11.36
2023-05-04T05:51:49.235Z,10.48
2023-05-04T05:52:20.240Z,10.68
2023-05-04T05:52:50.706Z,10.46
2023-05-04T05:53:21.658Z,9.83
2023-05-04T05:53:52.573Z,10.67
2023-05-04T05:54:23.453Z,10.31
2023-05-04T05:54:54.415Z,10.46
2023-05-04T05:55:25.252Z,9.89
2023-05-04T05:55:56.069Z,9.77
2023-05-04T05:56:26.907Z,10.05
2023-05-04T05:56:57.747Z,10.74
2023-05-04T05:57:28.592Z,10.02
2023-05-04T05:57:59.411Z,10.04
2023-05-04T05:58:30.227Z,9.97
2023-05-04T05:59:01.168Z,10.05
2023-05-04T05:59:32.197Z,9.83
2023-05-04T06:00:03.350Z,10.34
2023-05-04T06:00:34.072Z,10.42
2023-05-04T06:01:05.362Z,10.38
2023-05-04T06:01:35.691Z,9.65
2023-05-04T06:02:06.541Z,10.09
2023-05-04T06:02:37.479Z,10.13
2023-05-04T06:03:08.461Z,10.16
2023-05-04T06:03:39.054Z,10.40
2023-05-04T06:04:09.864Z,10.64
2023-05-04T06:04:40.360Z,10.67
2023-05-04T06:05:52.444Z,10.56
2023-05-04T06:06:23.338Z,9.77
2023-05-04T06:06:54.365Z,10.99
2023-05-04T06:07:24.809Z,10.79
2023-05-04T06:07:55.684Z,10.99
2023-05-04T06:08:26.581Z,10.30
2023-05-04T06:08:57.439Z,10.16
2023-05-04T06:09:28.257Z,10.81
2023-05-04T06:09:59.109Z,10.02
2023-05-04T06:10:29.975Z,10.63
2023-05-04T06:11:00.824Z,10.87
2023-05-04T06:11:31.687Z,10.93
2023-05-04T06:12:02.505Z,10.87
2023-05-04T06:12:33.613Z,10.71
2023-05-04T06:13:04.100Z,10.86
2023-05-04T06:13:35.272Z,10.71
2023-05-04T06:14:05.751Z,11.50
2023-05-04T06:14:38.650Z,10.34
2023-05-04T06:15:07.690Z,11.22
2023-05-04T06:15:38.028Z,10.99
2023-05-04T06:16:08.904Z,11.54
2023-05-04T06:16:39.807Z,9.99
2023-05-04T06:17:10.652Z,10.46
2023-05-04T06:17:41.489Z,10.72
2023-05-04T06:18:12.341Z,11.08
2023-05-04T06:18:43.413Z,10.67
2023-05-04T06:19:13.875Z,11.18
2023-05-04T06:19:45.076Z,10.86
2023-05-04T06:20:15.521Z,10.84
2023-05-04T06:20:46.669Z,11.26
2023-05-04T06:21:17.172Z,11.11
2023-05-04T06:21:48.263Z,11.17
2023-05-04T06:22:18.609Z,10.90
2023-05-04T06:22:49.428Z,11.11
2023-05-04T06:23:20.256Z,11.88
2023-05-04T06:23:51.096Z,10.96
2023-05-04T06:24:21.907Z,11.44
2023-05-04T06:24:54.003Z,11.48
2023-05-04T06:25:23.831Z,11.35
2023-05-04T06:25:54.710Z,10.92
2023-05-04T06:26:25.634Z,10.28
2023-05-04T06:26:56.631Z,12.18
2023-05-04T06:27:27.506Z,11.23
2023-05-04T06:27:58.344Z,11.05
2023-05-04T06:28:29.177Z,11.60
2023-05-04T06:29:00.054Z,11.12
2023-05-04T06:29:30.943Z,11.45
2023-05-04T06:30:02.745Z,11.27
2023-05-04T06:30:32.646Z,11.12
2023-05-04T06:31:03.649Z,11.17
2023-05-04T06:31:34.179Z,11.27
2023-05-04T06:32:04.768Z,10.99
2023-05-04T06:32:35.494Z,11.75
2023-05-04T06:33:06.060Z,11.94
2023-05-04T06:33:36.526Z,11.37
2023-05-04T06:34:07.495Z,12.21
2023-05-04T06:34:38.490Z,11.77
2023-05-04T06:35:09.356Z,11.57
2023-05-04T06:35:40.210Z,11.25
2023-05-04T06:36:11.067Z,11.63
2023-05-04T06:36:42.027Z,10.69
2023-05-04T06:37:14.144Z,11.62
2023-05-04T06:37:43.363Z,11.00
2023-05-04T06:38:14.246Z,10.84
2023-05-04T06:38:45.438Z,10.86
2023-05-04T06:39:15.921Z,10.87
2023-05-04T06:39:47.073Z,11.25
2023-05-04T06:40:17.536Z,11.37
2023-05-04T06:40:48.679Z,11.44
2023-05-04T06:41:19.086Z,12.18
2023-05-04T06:41:49.989Z,11.48
2023-05-04T06:42:20.926Z,11.55
2023-05-04T06:42:51.841Z,10.71
2023-05-04T06:43:22.744Z,11.95
2023-05-04T06:43:53.575Z,12.47
2023-05-04T06:44:24.582Z,11.94
2023-05-04T06:44:55.175Z,11.83
2023-05-04T06:45:25.649Z,11.63
2023-05-04T06:45:56.773Z,11.54
2023-05-04T06:46:27.245Z,11.40
2023-05-04T06:46:58.420Z,12.02
2023-05-04T06:47:28.848Z,11.68
2023-05-04T06:47:59.731Z,11.91
2023-05-04T06:48:30.679Z,10.92
2023-05-04T06:49:01.494Z,11.32